Terminal Aerodrome Forecast
Issued by NWS Austin/San Antonio, TX

Current Version | Previous Version | Text Only | Print | Product List | Glossary Off
Versions: 1 2 3 4 5 6 7 8 9 10 11 12 13 14 15

598
FTUS44 KEWX 270520
TAFDRT
TAF
KDRT 270520Z 2706/2806 VRB05KT P6SM SKC
     FM271600 15015G25KT P6SM SCT250
     FM280100 13008KT P6SM BKN250=

USA.gov is the U.S. government's official web portal to all federal, state and local government web resources and services.